sensor_id;sensor_type;location;lat;lon;timestamp;P1;durP1;ratioP1;P2;durP2;ratioP2
57325;SDS011;43161;50.950;18.224;2023-12-04T00:01:18;46.20;;;20.50;;
57325;SDS011;43161;50.950;18.224;2023-12-04T00:03:44;50.20;;;24.30;;
57325;SDS011;43161;50.950;18.224;2023-12-04T00:06:10;46.90;;;22.30;;
57325;SDS011;43161;50.950;18.224;2023-12-04T00:08:37;45.20;;;20.80;;
57325;SDS011;43161;50.950;18.224;2023-12-04T00:11:03;47.90;;;21.50;;
57325;SDS011;43161;50.950;18.224;2023-12-04T00:13:30;50.20;;;21.00;;
57325;SDS011;43161;50.950;18.224;2023-12-04T00:15:55;50.30;;;23.70;;
57325;SDS011;43161;50.950;18.224;2023-12-04T00:18:21;47.40;;;20.10;;
57325;SDS011;43161;50.950;18.224;2023-12-04T00:20:47;53.50;;;23.20;;
57325;SDS011;43161;50.950;18.224;2023-12-04T00:23:13;43.90;;;19.00;;
57325;SDS011;43161;50.950;18.224;2023-12-04T00:25:38;51.70;;;21.00;;
57325;SDS011;43161;50.950;18.224;2023-12-04T00:28:04;55.60;;;24.20;;
57325;SDS011;43161;50.950;18.224;2023-12-04T00:30:30;53.60;;;25.30;;
57325;SDS011;43161;50.950;18.224;2023-12-04T00:32:56;60.00;;;27.00;;
57325;SDS011;43161;50.950;18.224;2023-12-04T00:35:21;59.70;;;25.60;;
57325;SDS011;43161;50.950;18.224;2023-12-04T00:37:47;63.50;;;28.90;;
57325;SDS011;43161;50.950;18.224;2023-12-04T00:40:13;56.30;;;23.10;;
57325;SDS011;43161;50.950;18.224;2023-12-04T00:42:38;59.40;;;24.00;;
57325;SDS011;43161;50.950;18.224;2023-12-04T00:45:05;55.90;;;21.50;;
57325;SDS011;43161;50.950;18.224;2023-12-04T00:47:31;54.70;;;21.00;;
57325;SDS011;43161;50.950;18.224;2023-12-04T00:49:57;79.10;;;27.70;;
57325;SDS011;43161;50.950;18.224;2023-12-04T00:52:26;56.40;;;20.20;;
57325;SDS011;43161;50.950;18.224;2023-12-04T00:54:53;86.90;;;28.30;;
57325;SDS011;43161;50.950;18.224;2023-12-04T00:57:26;52.60;;;19.20;;
57325;SDS011;43161;50.950;18.224;2023-12-04T00:59:54;47.60;;;17.50;;
57325;SDS011;43161;50.950;18.224;2023-12-04T01:02:21;48.00;;;19.90;;
57325;SDS011;43161;50.950;18.224;2023-12-04T01:04:49;44.80;;;18.00;;
57325;SDS011;43161;50.950;18.224;2023-12-04T01:07:15;81.50;;;25.50;;
57325;SDS011;43161;50.950;18.224;2023-12-04T01:09:41;44.90;;;18.00;;
57325;SDS011;43161;50.950;18.224;2023-12-04T01:12:07;63.90;;;23.20;;
57325;SDS011;43161;50.950;18.224;2023-12-04T01:14:32;47.00;;;17.70;;
57325;SDS011;43161;50.950;18.224;2023-12-04T01:16:58;44.10;;;16.60;;
57325;SDS011;43161;50.950;18.224;2023-12-04T01:19:24;45.20;;;17.60;;
57325;SDS011;43161;50.950;18.224;2023-12-04T01:21:49;47.30;;;19.20;;
57325;SDS011;43161;50.950;18.224;2023-12-04T01:24:15;42.40;;;16.20;;
57325;SDS011;43161;50.950;18.224;2023-12-04T01:26:41;42.90;;;16.40;;
57325;SDS011;43161;50.950;18.224;2023-12-04T01:29:07;45.20;;;17.70;;
57325;SDS011;43161;50.950;18.224;2023-12-04T01:31:32;54.30;;;22.40;;
57325;SDS011;43161;50.950;18.224;2023-12-04T01:33:58;68.20;;;23.80;;
57325;SDS011;43161;50.950;18.224;2023-12-04T01:36:23;58.60;;;22.00;;
57325;SDS011;43161;50.950;18.224;2023-12-04T01:38:49;62.20;;;25.50;;
57325;SDS011;43161;50.950;18.224;2023-12-04T01:41:14;60.40;;;21.50;;
57325;SDS011;43161;50.950;18.224;2023-12-04T01:43:40;64.40;;;25.40;;
57325;SDS011;43161;50.950;18.224;2023-12-04T01:46:05;89.30;;;34.50;;
57325;SDS011;43161;50.950;18.224;2023-12-04T01:48:32;97.10;;;33.40;;
57325;SDS011;43161;50.950;18.224;2023-12-04T01:50:58;97.40;;;32.90;;
57325;SDS011;43161;50.950;18.224;2023-12-04T01:53:26;81.40;;;35.50;;
57325;SDS011;43161;50.950;18.224;2023-12-04T01:55:52;69.30;;;30.90;;
57325;SDS011;43161;50.950;18.224;2023-12-04T01:58:18;71.80;;;28.10;;
57325;SDS011;43161;50.950;18.224;2023-12-04T02:00:43;67.60;;;27.60;;
57325;SDS011;43161;50.950;18.224;2023-12-04T02:03:10;89.00;;;35.00;;
57325;SDS011;43161;50.950;18.224;2023-12-04T02:05:36;84.50;;;30.90;;
57325;SDS011;43161;50.950;18.224;2023-12-04T02:08:03;81.40;;;29.90;;
57325;SDS011;43161;50.950;18.224;2023-12-04T02:10:29;68.10;;;25.30;;
57325;SDS011;43161;50.950;18.224;2023-12-04T02:12:54;66.40;;;24.80;;
57325;SDS011;43161;50.950;18.224;2023-12-04T02:15:21;77.70;;;30.60;;
57325;SDS011;43161;50.950;18.224;2023-12-04T02:17:46;80.50;;;30.90;;
57325;SDS011;43161;50.950;18.224;2023-12-04T02:20:13;67.10;;;24.40;;
57325;SDS011;43161;50.950;18.224;2023-12-04T02:22:39;101.40;;;47.80;;
57325;SDS011;43161;50.950;18.224;2023-12-04T02:25:06;95.90;;;32.90;;
57325;SDS011;43161;50.950;18.224;2023-12-04T02:30:06;54.80;;;18.00;;
57325;SDS011;43161;50.950;18.224;2023-12-04T02:32:34;56.10;;;19.50;;
57325;SDS011;43161;50.950;18.224;2023-12-04T02:35:04;49.40;;;19.20;;
57325;SDS011;43161;50.950;18.224;2023-12-04T02:37:30;55.00;;;21.00;;
57325;SDS011;43161;50.950;18.224;2023-12-04T02:39:57;49.50;;;19.30;;
57325;SDS011;43161;50.950;18.224;2023-12-04T02:42:23;84.50;;;39.90;;
57325;SDS011;43161;50.950;18.224;2023-12-04T02:44:52;87.60;;;39.90;;
57325;SDS011;43161;50.950;18.224;2023-12-04T02:47:18;58.20;;;23.00;;
57325;SDS011;43161;50.950;18.224;2023-12-04T02:49:44;58.20;;;20.70;;
57325;SDS011;43161;50.950;18.224;2023-12-04T02:52:10;66.30;;;24.60;;
57325;SDS011;43161;50.950;18.224;2023-12-04T02:54:36;53.10;;;20.40;;
57325;SDS011;43161;50.950;18.224;2023-12-04T02:57:01;59.10;;;22.00;;
57325;SDS011;43161;50.950;18.224;2023-12-04T02:59:27;58.40;;;19.80;;
57325;SDS011;43161;50.950;18.224;2023-12-04T03:01:53;57.70;;;20.10;;
57325;SDS011;43161;50.950;18.224;2023-12-04T03:04:19;63.00;;;23.30;;
57325;SDS011;43161;50.950;18.224;2023-12-04T03:06:45;63.90;;;25.30;;
57325;SDS011;43161;50.950;18.224;2023-12-04T03:09:11;74.80;;;31.40;;
57325;SDS011;43161;50.950;18.224;2023-12-04T03:11:40;80.10;;;33.80;;
57325;SDS011;43161;50.950;18.224;2023-12-04T03:14:06;70.10;;;30.70;;
57325;SDS011;43161;50.950;18.224;2023-12-04T03:16:32;61.70;;;22.00;;
57325;SDS011;43161;50.950;18.224;2023-12-04T03:18:58;59.80;;;22.80;;
57325;SDS011;43161;50.950;18.224;2023-12-04T03:21:23;55.10;;;21.20;;
57325;SDS011;43161;50.950;18.224;2023-12-04T03:23:49;54.10;;;20.70;;
57325;SDS011;43161;50.950;18.224;2023-12-04T03:26:15;49.80;;;20.20;;
57325;SDS011;43161;50.950;18.224;2023-12-04T03:28:40;56.50;;;22.10;;
57325;SDS011;43161;50.950;18.224;2023-12-04T03:31:06;54.20;;;22.30;;
57325;SDS011;43161;50.950;18.224;2023-12-04T03:33:32;63.40;;;25.40;;
57325;SDS011;43161;50.950;18.224;2023-12-04T03:36:01;99.60;;;41.80;;
57325;SDS011;43161;50.950;18.224;2023-12-04T03:38:27;77.60;;;33.90;;
57325;SDS011;43161;50.950;18.224;2023-12-04T03:40:52;61.80;;;24.20;;
57325;SDS011;43161;50.950;18.224;2023-12-04T03:43:18;59.80;;;21.40;;
57325;SDS011;43161;50.950;18.224;2023-12-04T03:45:44;68.20;;;25.60;;
57325;SDS011;43161;50.950;18.224;2023-12-04T03:48:09;64.90;;;26.90;;
57325;SDS011;43161;50.950;18.224;2023-12-04T03:50:35;68.00;;;27.40;;
57325;SDS011;43161;50.950;18.224;2023-12-04T03:53:01;70.20;;;27.30;;
57325;SDS011;43161;50.950;18.224;2023-12-04T03:55:26;72.40;;;31.80;;
57325;SDS011;43161;50.950;18.224;2023-12-04T03:57:52;71.50;;;30.20;;
57325;SDS011;43161;50.950;18.224;2023-12-04T04:00:18;90.80;;;39.60;;
57325;SDS011;43161;50.950;18.224;2023-12-04T04:02:45;80.20;;;35.50;;
57325;SDS011;43161;50.950;18.224;2023-12-04T04:05:10;73.30;;;27.80;;
57325;SDS011;43161;50.950;18.224;2023-12-04T04:07:36;74.30;;;28.80;;
57325;SDS011;43161;50.950;18.224;2023-12-04T04:10:02;82.80;;;34.00;;
57325;SDS011;43161;50.950;18.224;2023-12-04T04:12:29;76.90;;;30.30;;
57325;SDS011;43161;50.950;18.224;2023-12-04T04:14:56;81.80;;;30.20;;
57325;SDS011;43161;50.950;18.224;2023-12-04T04:17:22;94.60;;;35.60;;
57325;SDS011;43161;50.950;18.224;2023-12-04T04:19:54;88.40;;;35.80;;
57325;SDS011;43161;50.950;18.224;2023-12-04T04:22:20;76.90;;;30.10;;
57325;SDS011;43161;50.950;18.224;2023-12-04T04:24:46;81.50;;;32.70;;
57325;SDS011;43161;50.950;18.224;2023-12-04T04:27:13;79.60;;;32.40;;
57325;SDS011;43161;50.950;18.224;2023-12-04T04:29:38;89.10;;;36.00;;
57325;SDS011;43161;50.950;18.224;2023-12-04T04:32:04;75.70;;;29.80;;
57325;SDS011;43161;50.950;18.224;2023-12-04T04:34:30;75.60;;;28.40;;
57325;SDS011;43161;50.950;18.224;2023-12-04T04:36:56;74.30;;;28.90;;
57325;SDS011;43161;50.950;18.224;2023-12-04T04:39:22;69.40;;;27.10;;
57325;SDS011;43161;50.950;18.224;2023-12-04T04:41:47;65.20;;;25.10;;
57325;SDS011;43161;50.950;18.224;2023-12-04T04:44:13;70.70;;;25.30;;
57325;SDS011;43161;50.950;18.224;2023-12-04T04:46:39;62.10;;;26.30;;
57325;SDS011;43161;50.950;18.224;2023-12-04T04:49:05;68.60;;;27.40;;
57325;SDS011;43161;50.950;18.224;2023-12-04T04:51:33;78.80;;;31.70;;
57325;SDS011;43161;50.950;18.224;2023-12-04T04:54:00;81.20;;;33.20;;
57325;SDS011;43161;50.950;18.224;2023-12-04T04:56:26;94.00;;;35.40;;
57325;SDS011;43161;50.950;18.224;2023-12-04T04:58:52;75.80;;;30.40;;
57325;SDS011;43161;50.950;18.224;2023-12-04T05:01:18;74.50;;;28.80;;
57325;SDS011;43161;50.950;18.224;2023-12-04T05:03:43;65.90;;;25.10;;
57325;SDS011;43161;50.950;18.224;2023-12-04T05:06:09;71.20;;;25.40;;
57325;SDS011;43161;50.950;18.224;2023-12-04T05:08:35;73.10;;;27.60;;
57325;SDS011;43161;50.950;18.224;2023-12-04T05:11:00;75.80;;;27.40;;
57325;SDS011;43161;50.950;18.224;2023-12-04T05:13:26;75.80;;;30.50;;
57325;SDS011;43161;50.950;18.224;2023-12-04T05:15:52;69.00;;;27.30;;
57325;SDS011;43161;50.950;18.224;2023-12-04T05:18:17;73.30;;;28.40;;
57325;SDS011;43161;50.950;18.224;2023-12-04T05:20:43;74.30;;;31.10;;
57325;SDS011;43161;50.950;18.224;2023-12-04T05:23:09;67.20;;;28.40;;
57325;SDS011;43161;50.950;18.224;2023-12-04T05:25:34;62.00;;;23.50;;
57325;SDS011;43161;50.950;18.224;2023-12-04T05:28:00;60.60;;;22.70;;
57325;SDS011;43161;50.950;18.224;2023-12-04T05:30:26;57.00;;;22.40;;
57325;SDS011;43161;50.950;18.224;2023-12-04T05:32:51;71.30;;;25.70;;
57325;SDS011;43161;50.950;18.224;2023-12-04T05:35:17;74.30;;;26.30;;
57325;SDS011;43161;50.950;18.224;2023-12-04T05:37:43;88.20;;;33.30;;
57325;SDS011;43161;50.950;18.224;2023-12-04T05:40:09;95.50;;;34.30;;
57325;SDS011;43161;50.950;18.224;2023-12-04T05:42:36;90.40;;;32.50;;
57325;SDS011;43161;50.950;18.224;2023-12-04T05:45:02;86.60;;;30.90;;
57325;SDS011;43161;50.950;18.224;2023-12-04T05:47:28;83.80;;;30.70;;
57325;SDS011;43161;50.950;18.224;2023-12-04T05:49:54;102.00;;;33.00;;
57325;SDS011;43161;50.950;18.224;2023-12-04T05:52:20;95.80;;;34.40;;
57325;SDS011;43161;50.950;18.224;2023-12-04T05:54:45;94.60;;;30.70;;
57325;SDS011;43161;50.950;18.224;2023-12-04T05:57:11;101.10;;;32.70;;
57325;SDS011;43161;50.950;18.224;2023-12-04T05:59:36;93.10;;;31.90;;
57325;SDS011;43161;50.950;18.224;2023-12-04T06:02:02;93.10;;;31.10;;
57325;SDS011;43161;50.950;18.224;2023-12-04T06:04:28;96.90;;;32.80;;
57325;SDS011;43161;50.950;18.224;2023-12-04T06:06:54;100.70;;;31.30;;
57325;SDS011;43161;50.950;18.224;2023-12-04T06:09:19;88.50;;;28.50;;
57325;SDS011;43161;50.950;18.224;2023-12-04T06:11:45;86.50;;;25.80;;
57325;SDS011;43161;50.950;18.224;2023-12-04T06:14:11;99.10;;;29.60;;
57325;SDS011;43161;50.950;18.224;2023-12-04T06:16:37;100.50;;;32.90;;
57325;SDS011;43161;50.950;18.224;2023-12-04T06:19:02;95.90;;;36.00;;
57325;SDS011;43161;50.950;18.224;2023-12-04T06:21:29;155.50;;;55.00;;
57325;SDS011;43161;50.950;18.224;2023-12-04T06:23:55;86.60;;;27.20;;
57325;SDS011;43161;50.950;18.224;2023-12-04T06:26:22;73.60;;;24.70;;
57325;SDS011;43161;50.950;18.224;2023-12-04T06:28:49;95.70;;;28.70;;
57325;SDS011;43161;50.950;18.224;2023-12-04T06:31:15;82.60;;;27.30;;
57325;SDS011;43161;50.950;18.224;2023-12-04T06:33:41;81.80;;;25.30;;
57325;SDS011;43161;50.950;18.224;2023-12-04T06:36:08;83.50;;;25.80;;
57325;SDS011;43161;50.950;18.224;2023-12-04T06:38:35;71.50;;;24.60;;
57325;SDS011;43161;50.950;18.224;2023-12-04T06:41:03;96.80;;;32.30;;
57325;SDS011;43161;50.950;18.224;2023-12-04T06:43:29;113.10;;;37.70;;
57325;SDS011;43161;50.950;18.224;2023-12-04T06:45:55;137.50;;;43.60;;
57325;SDS011;43161;50.950;18.224;2023-12-04T06:48:24;98.30;;;32.80;;
57325;SDS011;43161;50.950;18.224;2023-12-04T06:50:50;92.60;;;29.50;;
57325;SDS011;43161;50.950;18.224;2023-12-04T06:53:15;97.80;;;31.00;;
57325;SDS011;43161;50.950;18.224;2023-12-04T06:55:42;80.10;;;27.80;;
57325;SDS011;43161;50.950;18.224;2023-12-04T06:58:08;83.90;;;27.90;;
57325;SDS011;43161;50.950;18.224;2023-12-04T07:00:33;72.70;;;23.20;;
57325;SDS011;43161;50.950;18.224;2023-12-04T07:02:59;85.30;;;25.70;;
57325;SDS011;43161;50.950;18.224;2023-12-04T07:05:25;78.90;;;26.40;;
57325;SDS011;43161;50.950;18.224;2023-12-04T07:07:51;91.00;;;30.00;;
57325;SDS011;43161;50.950;18.224;2023-12-04T07:10:17;100.70;;;37.20;;
57325;SDS011;43161;50.950;18.224;2023-12-04T07:12:43;92.30;;;35.50;;
57325;SDS011;43161;50.950;18.224;2023-12-04T07:15:10;119.70;;;43.40;;
57325;SDS011;43161;50.950;18.224;2023-12-04T07:17:36;134.20;;;50.80;;
57325;SDS011;43161;50.950;18.224;2023-12-04T07:20:02;100.30;;;32.90;;
57325;SDS011;43161;50.950;18.224;2023-12-04T07:22:32;70.50;;;24.50;;
57325;SDS011;43161;50.950;18.224;2023-12-04T07:24:58;76.80;;;27.60;;
57325;SDS011;43161;50.950;18.224;2023-12-04T07:27:24;101.20;;;38.20;;
57325;SDS011;43161;50.950;18.224;2023-12-04T07:29:50;101.60;;;39.00;;
57325;SDS011;43161;50.950;18.224;2023-12-04T07:32:16;93.50;;;37.70;;
57325;SDS011;43161;50.950;18.224;2023-12-04T07:34:43;70.40;;;28.20;;
57325;SDS011;43161;50.950;18.224;2023-12-04T07:37:09;76.30;;;31.60;;
57325;SDS011;43161;50.950;18.224;2023-12-04T07:39:35;75.50;;;31.70;;
57325;SDS011;43161;50.950;18.224;2023-12-04T07:42:01;75.20;;;33.10;;
57325;SDS011;43161;50.950;18.224;2023-12-04T07:44:27;72.60;;;34.00;;
57325;SDS011;43161;50.950;18.224;2023-12-04T07:46:52;76.10;;;33.10;;
57325;SDS011;43161;50.950;18.224;2023-12-04T07:49:18;86.00;;;34.00;;
57325;SDS011;43161;50.950;18.224;2023-12-04T07:51:44;79.90;;;36.90;;
57325;SDS011;43161;50.950;18.224;2023-12-04T07:54:09;86.00;;;38.00;;
57325;SDS011;43161;50.950;18.224;2023-12-04T07:56:35;99.10;;;43.20;;
57325;SDS011;43161;50.950;18.224;2023-12-04T07:59:01;88.50;;;38.10;;
57325;SDS011;43161;50.950;18.224;2023-12-04T08:01:26;73.10;;;33.20;;
57325;SDS011;43161;50.950;18.224;2023-12-04T08:03:52;78.60;;;34.50;;
57325;SDS011;43161;50.950;18.224;2023-12-04T08:06:18;76.80;;;29.90;;
57325;SDS011;43161;50.950;18.224;2023-12-04T08:08:44;108.70;;;41.20;;
57325;SDS011;43161;50.950;18.224;2023-12-04T08:11:10;100.30;;;41.40;;
57325;SDS011;43161;50.950;18.224;2023-12-04T08:13:39;80.20;;;35.30;;
57325;SDS011;43161;50.950;18.224;2023-12-04T08:16:12;76.90;;;31.80;;
57325;SDS011;43161;50.950;18.224;2023-12-04T08:18:40;71.40;;;28.80;;
57325;SDS011;43161;50.950;18.224;2023-12-04T08:21:06;77.40;;;27.60;;
57325;SDS011;43161;50.950;18.224;2023-12-04T08:23:33;82.80;;;34.80;;
57325;SDS011;43161;50.950;18.224;2023-12-04T08:25:59;85.40;;;34.90;;
57325;SDS011;43161;50.950;18.224;2023-12-04T08:28:24;80.70;;;31.70;;
57325;SDS011;43161;50.950;18.224;2023-12-04T08:30:50;75.50;;;29.50;;
57325;SDS011;43161;50.950;18.224;2023-12-04T08:33:16;86.10;;;33.00;;
57325;SDS011;43161;50.950;18.224;2023-12-04T08:35:43;86.00;;;34.00;;
57325;SDS011;43161;50.950;18.224;2023-12-04T08:38:09;99.50;;;42.70;;
57325;SDS011;43161;50.950;18.224;2023-12-04T08:40:34;91.20;;;36.80;;
57325;SDS011;43161;50.950;18.224;2023-12-04T08:43:00;79.00;;;31.70;;
57325;SDS011;43161;50.950;18.224;2023-12-04T08:45:26;108.40;;;36.00;;
57325;SDS011;43161;50.950;18.224;2023-12-04T08:47:52;198.30;;;50.50;;
57325;SDS011;43161;50.950;18.224;2023-12-04T08:50:17;379.50;;;79.20;;
57325;SDS011;43161;50.950;18.224;2023-12-04T08:52:43;272.70;;;65.00;;
57325;SDS011;43161;50.950;18.224;2023-12-04T08:55:10;153.90;;;47.80;;
57325;SDS011;43161;50.950;18.224;2023-12-04T08:57:36;133.20;;;46.70;;
57325;SDS011;43161;50.950;18.224;2023-12-04T09:00:02;123.30;;;46.80;;
57325;SDS011;43161;50.950;18.224;2023-12-04T09:02:29;109.20;;;41.00;;
57325;SDS011;43161;50.950;18.224;2023-12-04T09:04:55;118.20;;;43.00;;
57325;SDS011;43161;50.950;18.224;2023-12-04T09:07:21;88.80;;;36.30;;
57325;SDS011;43161;50.950;18.224;2023-12-04T09:09:47;89.20;;;35.60;;
57325;SDS011;43161;50.950;18.224;2023-12-04T09:12:13;73.20;;;31.30;;
57325;SDS011;43161;50.950;18.224;2023-12-04T09:14:38;65.80;;;29.80;;
57325;SDS011;43161;50.950;18.224;2023-12-04T09:17:04;66.30;;;29.70;;
57325;SDS011;43161;50.950;18.224;2023-12-04T09:19:30;69.50;;;29.30;;
57325;SDS011;43161;50.950;18.224;2023-12-04T09:21:56;75.50;;;32.90;;
57325;SDS011;43161;50.950;18.224;2023-12-04T09:24:23;80.30;;;36.90;;
57325;SDS011;43161;50.950;18.224;2023-12-04T09:26:49;85.20;;;35.10;;
57325;SDS011;43161;50.950;18.224;2023-12-04T09:29:15;70.40;;;31.00;;
57325;SDS011;43161;50.950;18.224;2023-12-04T09:31:41;65.90;;;29.80;;
57325;SDS011;43161;50.950;18.224;2023-12-04T09:34:07;58.30;;;28.40;;
57325;SDS011;43161;50.950;18.224;2023-12-04T09:36:34;62.50;;;29.80;;
57325;SDS011;43161;50.950;18.224;2023-12-04T09:39:00;54.80;;;29.60;;
57325;SDS011;43161;50.950;18.224;2023-12-04T09:41:26;56.50;;;29.90;;
57325;SDS011;43161;50.950;18.224;2023-12-04T09:43:52;56.50;;;27.30;;
57325;SDS011;43161;50.950;18.224;2023-12-04T09:46:18;55.50;;;26.40;;
57325;SDS011;43161;50.950;18.224;2023-12-04T09:48:44;55.60;;;28.90;;
57325;SDS011;43161;50.950;18.224;2023-12-04T09:51:10;57.00;;;28.50;;
57325;SDS011;43161;50.950;18.224;2023-12-04T09:53:36;59.80;;;29.10;;
57325;SDS011;43161;50.950;18.224;2023-12-04T09:56:05;56.00;;;27.10;;
57325;SDS011;43161;50.950;18.224;2023-12-04T09:58:32;58.90;;;28.60;;
57325;SDS011;43161;50.950;18.224;2023-12-04T10:01:02;55.40;;;28.00;;
57325;SDS011;43161;50.950;18.224;2023-12-04T10:03:29;62.30;;;31.60;;
57325;SDS011;43161;50.950;18.224;2023-12-04T10:05:56;55.10;;;29.00;;
57325;SDS011;43161;50.950;18.224;2023-12-04T10:08:22;59.70;;;28.10;;
57325;SDS011;43161;50.950;18.224;2023-12-04T10:10:48;58.20;;;27.40;;
57325;SDS011;43161;50.950;18.224;2023-12-04T10:13:14;57.20;;;26.90;;
57325;SDS011;43161;50.950;18.224;2023-12-04T10:18:28;58.90;;;27.00;;
57325;SDS011;43161;50.950;18.224;2023-12-04T10:20:55;77.10;;;32.20;;
57325;SDS011;43161;50.950;18.224;2023-12-04T10:23:22;198.20;;;59.10;;
57325;SDS011;43161;50.950;18.224;2023-12-04T10:25:48;202.70;;;59.60;;
57325;SDS011;43161;50.950;18.224;2023-12-04T10:28:17;83.20;;;31.70;;
57325;SDS011;43161;50.950;18.224;2023-12-04T10:30:44;70.10;;;28.60;;
57325;SDS011;43161;50.950;18.224;2023-12-04T10:33:11;67.50;;;27.60;;
57325;SDS011;43161;50.950;18.224;2023-12-04T10:35:37;47.50;;;22.80;;
57325;SDS011;43161;50.950;18.224;2023-12-04T10:38:04;50.30;;;22.10;;
57325;SDS011;43161;50.950;18.224;2023-12-04T10:40:31;46.20;;;22.80;;
57325;SDS011;43161;50.950;18.224;2023-12-04T10:43:41;47.50;;;23.30;;
57325;SDS011;43161;50.950;18.224;2023-12-04T10:45:48;54.00;;;27.00;;
57325;SDS011;43161;50.950;18.224;2023-12-04T10:48:15;47.80;;;24.10;;
57325;SDS011;43161;50.950;18.224;2023-12-04T10:50:43;46.90;;;22.60;;
57325;SDS011;43161;50.950;18.224;2023-12-04T10:53:13;46.20;;;21.60;;
57325;SDS011;43161;50.950;18.224;2023-12-04T10:55:40;44.00;;;21.60;;
57325;SDS011;43161;50.950;18.224;2023-12-04T10:58:07;47.90;;;23.00;;
57325;SDS011;43161;50.950;18.224;2023-12-04T11:00:35;51.80;;;24.40;;
57325;SDS011;43161;50.950;18.224;2023-12-04T11:03:07;55.30;;;26.50;;
57325;SDS011;43161;50.950;18.224;2023-12-04T11:05:37;54.80;;;24.20;;
57325;SDS011;43161;50.950;18.224;2023-12-04T11:08:13;58.20;;;26.00;;
57325;SDS011;43161;50.950;18.224;2023-12-04T11:10:50;52.60;;;25.30;;
57325;SDS011;43161;50.950;18.224;2023-12-04T11:13:32;55.40;;;26.30;;
57325;SDS011;43161;50.950;18.224;2023-12-04T11:16:00;54.10;;;24.90;;
57325;SDS011;43161;50.950;18.224;2023-12-04T11:18:27;52.50;;;25.30;;
57325;SDS011;43161;50.950;18.224;2023-12-04T11:20:58;50.70;;;24.40;;
57325;SDS011;43161;50.950;18.224;2023-12-04T11:23:27;50.70;;;24.50;;
57325;SDS011;43161;50.950;18.224;2023-12-04T11:25:53;49.00;;;23.30;;
57325;SDS011;43161;50.950;18.224;2023-12-04T11:28:19;47.20;;;23.00;;
57325;SDS011;43161;50.950;18.224;2023-12-04T11:30:45;58.20;;;27.40;;
57325;SDS011;43161;50.950;18.224;2023-12-04T11:33:11;48.40;;;25.50;;
57325;SDS011;43161;50.950;18.224;2023-12-04T11:35:38;45.40;;;23.70;;
57325;SDS011;43161;50.950;18.224;2023-12-04T11:38:07;46.40;;;24.60;;
57325;SDS011;43161;50.950;18.224;2023-12-04T11:40:34;52.30;;;24.00;;
57325;SDS011;43161;50.950;18.224;2023-12-04T11:43:20;67.30;;;33.40;;
57325;SDS011;43161;50.950;18.224;2023-12-04T11:45:50;49.20;;;24.40;;
57325;SDS011;43161;50.950;18.224;2023-12-04T11:48:16;47.50;;;22.80;;
57325;SDS011;43161;50.950;18.224;2023-12-04T11:50:44;47.80;;;22.40;;
57325;SDS011;43161;50.950;18.224;2023-12-04T11:53:10;48.30;;;24.20;;
57325;SDS011;43161;50.950;18.224;2023-12-04T11:55:39;50.60;;;25.30;;
57325;SDS011;43161;50.950;18.224;2023-12-04T11:58:09;49.50;;;24.70;;
57325;SDS011;43161;50.950;18.224;2023-12-04T12:00:36;55.50;;;25.40;;
57325;SDS011;43161;50.950;18.224;2023-12-04T12:03:06;51.80;;;24.80;;
57325;SDS011;43161;50.950;18.224;2023-12-04T12:05:35;49.20;;;22.90;;
57325;SDS011;43161;50.950;18.224;2023-12-04T12:08:04;57.10;;;25.60;;
57325;SDS011;43161;50.950;18.224;2023-12-04T12:10:31;55.80;;;27.00;;
57325;SDS011;43161;50.950;18.224;2023-12-04T12:12:58;86.00;;;35.60;;
57325;SDS011;43161;50.950;18.224;2023-12-04T12:15:24;106.10;;;44.80;;
57325;SDS011;43161;50.950;18.224;2023-12-04T12:17:50;60.90;;;31.30;;
57325;SDS011;43161;50.950;18.224;2023-12-04T12:20:17;52.20;;;25.90;;
57325;SDS011;43161;50.950;18.224;2023-12-04T12:22:43;54.80;;;24.10;;
57325;SDS011;43161;50.950;18.224;2023-12-04T12:25:12;63.90;;;28.50;;
57325;SDS011;43161;50.950;18.224;2023-12-04T12:27:38;90.90;;;35.90;;
57325;SDS011;43161;50.950;18.224;2023-12-04T12:30:04;68.40;;;31.10;;
57325;SDS011;43161;50.950;18.224;2023-12-04T12:32:31;53.60;;;26.30;;
57325;SDS011;43161;50.950;18.224;2023-12-04T12:34:57;48.90;;;27.60;;
57325;SDS011;43161;50.950;18.224;2023-12-04T12:37:23;44.70;;;22.80;;
57325;SDS011;43161;50.950;18.224;2023-12-04T12:39:49;54.20;;;30.80;;
57325;SDS011;43161;50.950;18.224;2023-12-04T12:42:34;50.20;;;26.60;;
57325;SDS011;43161;50.950;18.224;2023-12-04T12:45:00;74.10;;;37.50;;
57325;SDS011;43161;50.950;18.224;2023-12-04T12:47:29;69.20;;;34.10;;
57325;SDS011;43161;50.950;18.224;2023-12-04T12:49:55;59.50;;;29.10;;
57325;SDS011;43161;50.950;18.224;2023-12-04T12:52:20;61.60;;;28.80;;
57325;SDS011;43161;50.950;18.224;2023-12-04T12:54:46;55.60;;;25.30;;
57325;SDS011;43161;50.950;18.224;2023-12-04T12:57:12;53.50;;;23.80;;
57325;SDS011;43161;50.950;18.224;2023-12-04T12:59:38;52.20;;;23.80;;
57325;SDS011;43161;50.950;18.224;2023-12-04T13:02:04;52.40;;;26.20;;
57325;SDS011;43161;50.950;18.224;2023-12-04T13:04:39;54.50;;;25.70;;
57325;SDS011;43161;50.950;18.224;2023-12-04T13:07:06;63.60;;;31.10;;
57325;SDS011;43161;50.950;18.224;2023-12-04T13:09:32;62.60;;;32.70;;
57325;SDS011;43161;50.950;18.224;2023-12-04T13:12:01;56.30;;;26.60;;
57325;SDS011;43161;50.950;18.224;2023-12-04T13:14:27;56.00;;;26.70;;
57325;SDS011;43161;50.950;18.224;2023-12-04T13:16:53;55.70;;;25.10;;
57325;SDS011;43161;50.950;18.224;2023-12-04T13:19:20;223.10;;;57.50;;
57325;SDS011;43161;50.950;18.224;2023-12-04T13:21:46;171.80;;;53.30;;
57325;SDS011;43161;50.950;18.224;2023-12-04T13:24:12;117.20;;;47.80;;
57325;SDS011;43161;50.950;18.224;2023-12-04T13:26:38;94.50;;;41.20;;
57325;SDS011;43161;50.950;18.224;2023-12-04T13:29:04;65.70;;;33.10;;
57325;SDS011;43161;50.950;18.224;2023-12-04T13:31:31;48.00;;;24.80;;
57325;SDS011;43161;50.950;18.224;2023-12-04T13:34:00;42.80;;;20.80;;
57325;SDS011;43161;50.950;18.224;2023-12-04T13:36:26;40.50;;;20.40;;
57325;SDS011;43161;50.950;18.224;2023-12-04T13:38:52;42.50;;;21.10;;
57325;SDS011;43161;50.950;18.224;2023-12-04T13:41:19;45.20;;;20.60;;
57325;SDS011;43161;50.950;18.224;2023-12-04T13:44:00;44.60;;;20.50;;
57325;SDS011;43161;50.950;18.224;2023-12-04T13:46:27;38.80;;;16.40;;
57325;SDS011;43161;50.950;18.224;2023-12-04T13:48:58;36.20;;;16.90;;
57325;SDS011;43161;50.950;18.224;2023-12-04T13:51:24;47.90;;;21.20;;
57325;SDS011;43161;50.950;18.224;2023-12-04T13:53:51;47.40;;;21.60;;
57325;SDS011;43161;50.950;18.224;2023-12-04T13:56:26;45.80;;;19.90;;
57325;SDS011;43161;50.950;18.224;2023-12-04T13:59:08;45.20;;;19.20;;
57325;SDS011;43161;50.950;18.224;2023-12-04T14:01:42;43.50;;;19.90;;
57325;SDS011;43161;50.950;18.224;2023-12-04T14:04:08;43.30;;;19.40;;
57325;SDS011;43161;50.950;18.224;2023-12-04T14:06:34;44.70;;;19.80;;
57325;SDS011;43161;50.950;18.224;2023-12-04T14:08:59;48.30;;;20.30;;
57325;SDS011;43161;50.950;18.224;2023-12-04T14:11:25;49.80;;;22.80;;